Time;durP1;ratioP1;P1;durP2;ratioP2;P2;SDS_P1;SDS_P2;PMS_P1;PMS_P2;Temp;Humidity;BMP_temperature;BMP_pressure;BME280_temperature;BME280_humidity;BME280_pressure;Samples;Min_cycle;Max_cycle;Signal;HPM_P1;HPM_P2
2021/03/27 00:01:56;;;;;;;8.18;5.75;;;;;;;-140.79;100.00;63287.88;4948858;29;19922;-76
2021/03/27 00:04:33;;;;;;;8.20;5.37;;;;;;;-140.79;100.00;63287.88;4948812;29;20091;-75
2021/03/27 00:07:14;;;;;;;8.30;5.57;;;;;;;-140.79;100.00;63287.88;4949711;28;20034;-77
2021/03/27 00:10:03;;;;;;;9.23;5.88;;;;;;;-140.79;100.00;63287.88;4948168;28;20031;-76
2021/03/27 00:12:44;;;;;;;8.70;5.57;;;;;;;-140.79;100.00;63287.88;4948553;28;20121;-76
2021/03/27 00:15:32;;;;;;;10.20;5.97;;;;;;;-140.79;100.00;63287.88;4949803;28;20023;-75
2021/03/27 00:18:05;;;;;;;9.30;5.55;;;;;;;-140.79;100.00;63287.88;4927621;29;20530;-77
2021/03/27 00:20:42;;;;;;;8.77;5.85;;;;;;;-140.79;100.00;63287.88;4907834;29;20036;-77
2021/03/27 00:23:42;;;;;;;9.27;5.50;;;;;;;-140.79;100.00;63287.88;4912605;28;20032;-76
2021/03/27 00:26:13;;;;;;;7.80;5.60;;;;;;;-140.79;100.00;63287.88;4914878;29;20058;-76
2021/03/27 00:28:41;;;;;;;9.23;5.85;;;;;;;-140.79;100.00;63287.88;4932794;29;20035;-75
2021/03/27 00:31:20;;;;;;;8.80;6.07;;;;;;;-140.79;100.00;63287.88;4915343;28;20092;-76
2021/03/27 00:34:05;;;;;;;8.38;6.00;;;;;;;-140.79;100.00;63287.88;4898361;29;20044;-75
2021/03/27 00:36:42;;;;;;;8.73;5.75;;;;;;;-140.79;100.00;63287.88;4931492;29;20031;-75
2021/03/27 00:39:18;;;;;;;9.50;5.80;;;;;;;-140.79;100.00;63287.88;4932668;29;20031;-75
2021/03/27 00:41:50;;;;;;;9.20;5.65;;;;;;;-140.79;100.00;63287.88;4932426;29;20027;-75
2021/03/27 00:44:15;;;;;;;8.45;5.93;;;;;;;-140.79;100.00;63287.88;4922730;29;20528;-76
2021/03/27 00:46:41;;;;;;;10.82;6.38;;;;;;;-140.79;100.00;63287.88;4913128;29;20039;-76
2021/03/27 00:49:11;;;;;;;10.02;5.95;;;;;;;-140.79;100.00;63287.88;4913234;29;20047;-76
2021/03/27 00:51:46;;;;;;;8.73;6.18;;;;;;;-140.79;100.00;63287.88;4913644;29;20058;-75
2021/03/27 00:54:14;;;;;;;8.73;5.70;;;;;;;-140.79;100.00;63287.88;4926335;29;20027;-75
2021/03/27 00:56:59;;;;;;;9.68;6.35;;;;;;;-140.79;100.00;63287.88;4948619;29;20037;-75
2021/03/27 01:00:11;;;;;;;10.88;6.22;;;;;;;-140.79;100.00;63287.88;4948243;28;20442;-76
2021/03/27 01:02:38;;;;;;;10.27;6.13;;;;;;;-140.79;100.00;63287.88;4921067;29;20087;-76
2021/03/27 01:05:06;;;;;;;11.38;7.35;;;;;;;-140.79;100.00;63287.88;4915902;29;20048;-76
2021/03/27 01:07:32;;;;;;;9.07;6.22;;;;;;;-140.79;100.00;63287.88;4909610;29;20040;-76
2021/03/27 01:10:00;;;;;;;10.32;6.57;;;;;;;-140.79;100.00;63287.88;4929131;29;20028;-75
2021/03/27 01:12:31;;;;;;;9.93;6.45;;;;;;;-140.79;100.00;63287.88;4943691;28;20036;-75
2021/03/27 01:15:12;;;;;;;9.75;6.03;;;;;;;-140.79;100.00;63287.88;4888701;29;20024;-75
2021/03/27 01:17:44;;;;;;;12.48;7.40;;;;;;;-140.79;100.00;63287.88;4883775;29;20028;-75
2021/03/27 01:20:19;;;;;;;8.98;6.60;;;;;;;-140.79;100.00;63287.88;4907231;29;20045;-76
2021/03/27 01:22:45;;;;;;;10.18;6.25;;;;;;;-140.79;100.00;63287.88;4910291;29;20032;-76
2021/03/27 01:25:11;;;;;;;10.43;6.80;;;;;;;-140.79;100.00;63287.88;4943715;29;20090;-76
2021/03/27 01:28:00;;;;;;;10.60;6.78;;;;;;;-140.79;100.00;63287.88;4933780;29;20023;-76
2021/03/27 01:30:50;;;;;;;10.15;7.03;;;;;;;-140.79;100.00;63287.88;4933426;29;20096;-76
2021/03/27 01:33:18;;;;;;;11.93;6.80;;;;;;;-140.79;100.00;63287.88;4946552;29;20048;-77
2021/03/27 01:35:46;;;;;;;10.55;6.75;;;;;;;-140.79;100.00;63287.88;4949313;28;20115;-77
2021/03/27 01:38:20;;;;;;;12.10;7.50;;;;;;;-140.79;100.00;63287.88;4933605;29;20023;-77
2021/03/27 01:41:10;;;;;;;12.40;7.50;;;;;;;-140.79;100.00;63287.88;4933431;29;20793;-77
2021/03/27 01:43:41;;;;;;;;;;;;;;;-140.79;100.00;63287.88;4934953;29;20090;-76
2021/03/27 01:46:22;;;;;;;10.57;6.82;;;;;;;-140.79;100.00;63287.88;4934971;29;19915;-76
2021/03/27 01:49:12;;;;;;;10.82;7.30;;;;;;;-140.79;100.00;63287.88;4934517;29;20031;-75
2021/03/27 01:51:54;;;;;;;10.48;7.05;;;;;;;-140.79;100.00;63287.88;4934760;29;20031;-75
2021/03/27 01:54:28;;;;;;;11.73;7.63;;;;;;;-140.79;100.00;63287.88;4928936;29;20430;-78
2021/03/27 01:57:05;;;;;;;11.13;7.38;;;;;;;-140.79;100.00;63287.88;4894956;29;20125;-76
2021/03/27 01:59:43;;;;;;;12.15;7.38;;;;;;;-140.79;100.00;63287.88;4896242;29;20039;-76
2021/03/27 02:02:22;;;;;;;11.55;7.70;;;;;;;-140.79;100.00;63287.88;4895289;29;20040;-77
2021/03/27 02:05:07;;;;;;;11.95;7.13;;;;;;;-140.79;100.00;63287.88;4909184;29;20100;-75
2021/03/27 02:08:11;;;;;;;11.38;7.53;;;;;;;-140.79;100.00;63287.88;4910833;29;20426;-79
2021/03/27 02:11:30;;;;;;;14.43;7.75;;;;;;;-140.79;100.00;63287.88;4916547;29;20044;-75
2021/03/27 02:14:29;;;;;;;11.07;6.93;;;;;;;-140.79;100.00;63287.88;4912391;29;20062;-76
2021/03/27 02:16:59;;;;;;;10.88;7.57;;;;;;;-140.79;100.00;63287.88;4918788;29;20067;-76
2021/03/27 02:19:37;;;;;;;12.55;7.40;;;;;;;-140.79;100.00;63287.88;4948096;28;20417;-76
2021/03/27 02:22:10;;;;;;;11.20;7.45;;;;;;;-140.79;100.00;63287.88;4932739;29;20252;-76
2021/03/27 02:24:54;;;;;;;12.30;7.50;;;;;;;-140.79;100.00;63287.88;4948635;28;20627;-76
2021/03/27 02:27:44;;;;;;;12.77;8.30;;;;;;;-140.79;100.00;63287.88;4933564;29;20028;-75
2021/03/27 02:30:20;;;;;;;11.38;7.85;;;;;;;-140.79;100.00;63287.88;4920778;29;20040;-77
2021/03/27 02:32:48;;;;;;;10.77;7.40;;;;;;;-140.79;100.00;63287.88;4913215;29;20056;-78
2021/03/27 02:35:16;;;;;;;11.25;7.88;;;;;;;-140.79;100.00;63287.88;4914047;29;20473;-77
2021/03/27 02:37:57;;;;;;;12.55;7.93;;;;;;;-140.79;100.00;63287.88;4913361;29;20070;-77
2021/03/27 02:40:25;;;;;;;14.27;8.10;;;;;;;-140.79;100.00;63287.88;4898987;29;20123;-77
2021/03/27 02:42:51;;;;;;;10.65;7.38;;;;;;;-140.79;100.00;63287.88;4897480;29;20032;-77
2021/03/27 02:45:44;;;;;;;10.93;7.50;;;;;;;-140.79;100.00;63287.88;4913754;29;20421;-77
2021/03/27 02:48:35;;;;;;;11.70;7.53;;;;;;;-140.79;100.00;63287.88;4914609;29;20032;-77
2021/03/27 02:51:18;;;;;;;12.00;7.72;;;;;;;-140.79;100.00;63287.88;4914256;29;20024;-77
2021/03/27 02:54:15;;;;;;;11.43;7.35;;;;;;;-140.79;100.00;63287.88;4914197;29;20024;-77
2021/03/27 02:56:57;;;;;;;13.38;8.60;;;;;;;-140.79;100.00;63287.88;4912541;29;20417;-76
2021/03/27 02:59:35;;;;;;;10.90;7.60;;;;;;;-140.79;100.00;63287.88;4912901;29;20290;-76
2021/03/27 03:02:22;;;;;;;13.45;7.78;;;;;;;-140.79;100.00;63287.88;4912782;29;20042;-76
2021/03/27 03:05:09;;;;;;;12.48;7.75;;;;;;;-140.79;100.00;63287.88;4912442;29;20052;-76
2021/03/27 03:08:11;;;;;;;12.57;7.68;;;;;;;-140.79;100.00;63287.88;4913003;29;20127;-77
2021/03/27 03:10:50;;;;;;;11.02;7.70;;;;;;;-140.79;100.00;63287.88;4914250;29;20042;-77
2021/03/27 03:13:40;;;;;;;11.88;7.75;;;;;;;-140.79;100.00;63287.88;4913925;29;20076;-77
2021/03/27 03:16:44;;;;;;;12.38;7.80;;;;;;;-140.79;100.00;63287.88;4921620;29;20083;-77
2021/03/27 03:19:19;;;;;;;14.75;8.48;;;;;;;-140.79;100.00;63287.88;4895155;29;20037;-77
2021/03/27 03:22:12;;;;;;;12.13;8.15;;;;;;;-140.79;100.00;63287.88;4893433;29;20490;-77
2021/03/27 03:24:48;;;;;;;12.63;7.90;;;;;;;-140.79;100.00;63287.88;4890934;29;20044;-77
2021/03/27 03:27:34;;;;;;;12.77;8.10;;;;;;;-140.79;100.00;63287.88;4893032;29;20029;-77
2021/03/27 03:30:24;;;;;;;12.93;8.00;;;;;;;-140.79;100.00;63287.88;4892878;29;20060;-77
2021/03/27 03:32:55;;;;;;;13.23;8.25;;;;;;;-140.79;100.00;63287.88;4896801;29;20106;-77
2021/03/27 03:35:46;;;;;;;12.98;7.95;;;;;;;-140.79;100.00;63287.88;4908299;29;20035;-77
2021/03/27 03:38:20;;;;;;;14.30;8.27;;;;;;;-140.79;100.00;63287.88;4894005;29;20052;-77
2021/03/27 03:41:09;;;;;;;12.10;8.02;;;;;;;-140.79;100.00;63287.88;4921747;29;20039;-77
2021/03/27 03:43:56;;;;;;;14.02;8.20;;;;;;;-140.79;100.00;63287.88;4943696;28;20023;-77
2021/03/27 03:46:30;;;;;;;13.70;8.57;;;;;;;-140.79;100.00;63287.88;4931441;29;20035;-77
2021/03/27 03:49:03;;;;;;;13.68;8.23;;;;;;;-140.79;100.00;63287.88;4931326;29;20103;-77
2021/03/27 03:51:43;;;;;;;12.68;7.80;;;;;;;-140.79;100.00;63287.88;4931298;29;20114;-77
2021/03/27 03:54:39;;;;;;;11.50;7.40;;;;;;;-140.79;100.00;63287.88;4947139;28;20090;-77
2021/03/27 03:57:19;;;;;;;12.25;7.93;;;;;;;-140.79;100.00;63287.88;4932083;29;20043;-77
2021/03/27 03:59:52;;;;;;;13.15;8.65;;;;;;;-140.79;100.00;63287.88;4945977;28;20032;-76
2021/03/27 04:02:28;;;;;;;13.38;8.57;;;;;;;-140.79;100.00;63287.88;4910963;29;20036;-77
2021/03/27 04:05:00;;;;;;;12.57;8.23;;;;;;;-140.79;100.00;63287.88;4892720;29;20048;-78
2021/03/27 04:07:39;;;;;;;13.50;8.60;;;;;;;-140.79;100.00;63287.88;4893133;29;20044;-78
2021/03/27 04:10:19;;;;;;;12.70;8.07;;;;;;;-140.79;100.00;63287.88;4887282;29;20079;-77
2021/03/27 04:12:49;;;;;;;11.88;7.93;;;;;;;-140.79;100.00;63287.88;4930591;29;20024;-77
2021/03/27 04:15:14;;;;;;;12.45;8.38;;;;;;;-140.79;100.00;63287.88;4938657;29;20039;-77
2021/03/27 04:17:40;;;;;;;12.70;8.45;;;;;;;-140.79;100.00;63287.88;4912902;29;20040;-77
2021/03/27 04:20:40;;;;;;;13.27;8.05;;;;;;;-140.79;100.00;63287.88;4927413;29;20036;-77
2021/03/27 04:23:33;;;;;;;11.32;7.80;;;;;;;-140.79;100.00;63287.88;4898286;29;20027;-78
2021/03/27 04:26:09;;;;;;;13.68;7.93;;;;;;;-140.79;100.00;63287.88;4898229;29;20095;-77
2021/03/27 04:28:40;;;;;;;11.38;8.23;;;;;;;-140.79;100.00;63287.88;4912187;29;20036;-81
2021/03/27 04:31:22;;;;;;;13.30;8.80;;;;;;;-140.79;100.00;63287.88;4913878;29;20540;-77
2021/03/27 04:34:15;;;;;;;11.85;7.78;;;;;;;-140.79;100.00;63287.88;4897038;29;20071;-77
2021/03/27 04:37:26;;;;;;;13.73;8.50;;;;;;;-140.79;100.00;63287.88;4913072;29;20036;-78
2021/03/27 04:40:11;;;;;;;15.35;9.80;;;;;;;-140.79;100.00;63287.88;4915217;29;20027;-77
2021/03/27 04:42:56;;;;;;;13.93;8.93;;;;;;;-140.79;100.00;63287.88;4945653;28;20514;-77
2021/03/27 04:45:25;;;;;;;18.25;11.02;;;;;;;-140.79;100.00;63287.88;4945762;28;20052;-76
2021/03/27 04:48:16;;;;;;;15.68;9.70;;;;;;;-140.79;100.00;63287.88;4930403;29;20505;-75
2021/03/27 04:50:50;;;;;;;13.55;8.88;;;;;;;-140.79;100.00;63287.88;4931390;29;20047;-74
2021/03/27 04:53:39;;;;;;;13.20;8.95;;;;;;;-140.79;100.00;63287.88;4929957;29;20155;-75
2021/03/27 04:56:33;;;;;;;15.02;10.13;;;;;;;-140.79;100.00;63287.88;4945350;28;20044;-75
2021/03/27 04:59:03;;;;;;;12.30;8.85;;;;;;;-140.79;100.00;63287.88;4929289;29;20040;-76
2021/03/27 05:01:48;;;;;;;14.57;9.70;;;;;;;-140.79;100.00;63287.88;4945301;28;20028;-78
2021/03/27 05:04:21;;;;;;;12.73;8.13;;;;;;;-140.79;100.00;63287.88;4945776;29;20048;-77
2021/03/27 05:06:48;;;;;;;12.60;8.18;;;;;;;-140.79;100.00;63287.88;4919757;29;20035;-75
2021/03/27 05:09:35;;;;;;;14.63;8.10;;;;;;;-140.79;100.00;63287.88;4876912;28;20134;-74
2021/03/27 05:12:12;;;;;;;14.30;8.60;;;;;;;-140.79;100.00;63287.88;4957559;28;20044;-75
2021/03/27 05:14:41;;;;;;;15.05;9.43;;;;;;;-140.79;100.00;63287.88;4942469;28;20534;-77
2021/03/27 05:17:43;;;;;;;13.38;9.07;;;;;;;-140.79;100.00;63287.88;4940624;28;20126;-76
2021/03/27 05:20:19;;;;;;;12.48;8.27;;;;;;;-140.79;100.00;63287.88;4947971;28;20396;-76
2021/03/27 05:23:00;;;;;;;15.55;9.10;;;;;;;-140.79;100.00;63287.88;4956775;28;20031;-78
2021/03/27 05:26:09;;;;;;;14.02;9.05;;;;;;;-140.79;100.00;63287.88;4941692;28;20251;-78
2021/03/27 05:28:59;;;;;;;14.32;9.32;;;;;;;-140.79;100.00;63287.88;4934491;28;20050;-77
2021/03/27 05:31:36;;;;;;;14.40;9.32;;;;;;;-140.79;100.00;63287.88;4926567;29;20040;-75
2021/03/27 05:34:01;;;;;;;13.95;8.95;;;;;;;-140.79;100.00;63287.88;4911013;29;20031;-75
2021/03/27 05:37:00;;;;;;;12.50;8.40;;;;;;;-140.79;100.00;63287.88;4916575;29;20424;-78
2021/03/27 05:39:45;;;;;;;14.30;8.80;;;;;;;-140.79;100.00;63287.88;4944635;28;20035;-76
2021/03/27 05:42:47;;;;;;;13.38;8.40;;;;;;;-140.79;100.00;63287.88;4954028;28;20122;-78
2021/03/27 05:45:50;;;;;;;13.80;8.85;;;;;;;-140.79;100.00;63287.88;4930802;29;20526;-78
2021/03/27 05:48:38;;;;;;;14.15;9.35;;;;;;;-140.79;100.00;63287.88;4912289;29;20044;-79
2021/03/27 05:51:24;;;;;;;13.98;8.88;;;;;;;-140.79;100.00;63287.88;4912187;29;20518;-75
2021/03/27 05:54:09;;;;;;;15.50;9.88;;;;;;;-140.79;100.00;63287.88;4912437;29;20097;-77
2021/03/27 05:56:59;;;;;;;15.27;9.73;;;;;;;-140.79;100.00;63287.88;4925156;29;20036;-77
2021/03/27 05:59:44;;;;;;;;;;;;;;;-140.79;100.00;63287.88;4933303;29;20036;-77
2021/03/27 06:02:28;;;;;;;13.43;9.50;;;;;;;-140.79;100.00;63287.88;4961244;29;20376;-78
2021/03/27 06:05:58;;;;;;;17.23;10.80;;;;;;;-140.79;100.00;63287.88;4949555;28;20040;-77
2021/03/27 06:08:26;;;;;;;21.48;12.38;;;;;;;-140.79;100.00;63287.88;4913538;29;20078;-77
2021/03/27 06:11:06;;;;;;;16.75;10.35;;;;;;;-140.79;100.00;63287.88;4916579;29;20043;-78
2021/03/27 06:14:15;;;;;;;14.20;9.57;;;;;;;-140.79;100.00;63287.88;4925498;29;20043;-78
2021/03/27 06:16:41;;;;;;;14.35;9.10;;;;;;;-140.79;100.00;63287.88;4953144;28;20122;-77
2021/03/27 06:19:12;;;;;;;16.60;9.85;;;;;;;-140.79;100.00;63287.88;4952809;28;20118;-78
2021/03/27 06:22:00;;;;;;;15.07;9.18;;;;;;;-140.79;100.00;63287.88;4953247;28;20023;-78
2021/03/27 06:24:50;;;;;;;15.52;8.85;;;;;;;-140.79;100.00;63287.88;4953127;29;20031;-78
2021/03/27 06:27:28;;;;;;;18.38;9.55;;;;;;;-140.79;100.00;63287.88;4952003;29;20141;-78
2021/03/27 06:30:18;;;;;;;14.95;9.02;;;;;;;-140.79;100.00;63287.88;4967683;28;20424;-79
2021/03/27 06:33:08;;;;;;;18.67;9.23;;;;;;;-140.79;100.00;63287.88;4967764;28;20519;-78
2021/03/27 06:35:51;;;;;;;14.65;9.30;;;;;;;-140.79;100.00;63287.88;4953004;29;20031;-79
2021/03/27 06:38:35;;;;;;;14.25;8.73;;;;;;;-140.79;100.00;63287.88;4967798;28;20126;-76
2021/03/27 06:41:13;;;;;;;13.07;8.38;;;;;;;-140.79;100.00;63287.88;4952942;28;20039;-78
2021/03/27 06:43:50;;;;;;;13.93;8.73;;;;;;;-140.79;100.00;63287.88;4952684;29;20501;-78
2021/03/27 06:46:40;;;;;;;13.55;9.02;;;;;;;-140.79;100.00;63287.88;4952277;28;20035;-75
2021/03/27 06:49:11;;;;;;;14.20;8.82;;;;;;;-140.79;100.00;63287.88;4952956;29;20051;-78
2021/03/27 06:51:48;;;;;;;14.93;9.10;;;;;;;-140.79;100.00;63287.88;4952816;28;20045;-76
2021/03/27 06:54:42;;;;;;;13.68;8.70;;;;;;;-140.79;100.00;63287.88;4952860;28;20031;-77
2021/03/27 06:57:36;;;;;;;12.38;7.93;;;;;;;-140.79;100.00;63287.88;4951300;29;20224;-77
2021/03/27 07:00:29;;;;;;;14.27;8.68;;;;;;;-140.79;100.00;63287.88;4968034;28;20488;-77
2021/03/27 07:03:31;;;;;;;13.90;8.27;;;;;;;-140.79;100.00;63287.88;4954792;28;20037;-78
2021/03/27 07:06:16;;;;;;;13.05;8.05;;;;;;;-140.79;100.00;63287.88;4966592;28;20558;-85
2021/03/27 07:09:06;;;;;;;21.33;9.73;;;;;;;-140.79;100.00;63287.88;4952272;28;20161;-81
2021/03/27 07:11:40;;;;;;;18.27;9.10;;;;;;;-140.79;100.00;63287.88;4956961;28;20028;-77
2021/03/27 07:14:27;;;;;;;17.90;8.80;;;;;;;-140.79;100.00;63287.88;4972148;28;20137;-78
2021/03/27 07:17:01;;;;;;;16.70;8.80;;;;;;;-140.79;100.00;63287.88;4952570;29;20077;-79
2021/03/27 07:19:48;;;;;;;22.45;10.02;;;;;;;-140.79;100.00;63287.88;4952486;28;20062;-76
2021/03/27 07:22:17;;;;;;;15.23;8.57;;;;;;;-140.79;100.00;63287.88;4950262;28;20126;-77
2021/03/27 07:25:44;;;;;;;14.77;8.60;;;;;;;-140.79;100.00;63287.88;4933080;29;20046;-77
2021/03/27 07:28:19;;;;;;;14.85;8.27;;;;;;;-140.79;100.00;63287.88;4906773;29;20036;-76
2021/03/27 07:31:03;;;;;;;15.90;9.15;;;;;;;-140.79;100.00;63287.88;4945556;28;20039;-76
2021/03/27 07:33:41;;;;;;;16.35;8.18;;;;;;;-140.79;100.00;63287.88;4950523;29;20037;-76
2021/03/27 07:36:18;;;;;;;16.42;9.07;;;;;;;-140.79;100.00;63287.88;4952000;29;20020;-75
2021/03/27 07:38:47;;;;;;;13.35;7.80;;;;;;;-140.79;100.00;63287.88;4951834;28;20066;-78
2021/03/27 07:41:35;;;;;;;14.63;7.93;;;;;;;-140.79;100.00;63287.88;4952312;29;20035;-76
2021/03/27 07:44:21;;;;;;;14.95;8.18;;;;;;;-140.79;100.00;63287.88;4945632;29;20043;-73
2021/03/27 07:47:17;;;;;;;14.95;7.63;;;;;;;-140.79;100.00;63287.88;4949364;29;20100;-75
2021/03/27 07:50:27;;;;;;;27.58;21.08;;;;;;;-140.79;100.00;63287.88;4966719;28;20114;-73
2021/03/27 07:52:52;;;;;;;;;;;;;;;-140.79;100.00;63287.88;4940042;28;20038;-77
2021/03/27 07:55:36;;;;;;;13.27;7.73;;;;;;;-140.79;100.00;63287.88;4963210;28;19913;-78
2021/03/27 07:58:27;;;;;;;16.00;8.60;;;;;;;-140.79;100.00;63287.88;4946705;28;20334;-77
2021/03/27 08:01:04;;;;;;;;;;;;;;;-140.79;100.00;63287.88;4949118;28;20035;-76
2021/03/27 08:03:54;;;;;;;13.82;7.57;;;;;;;-140.79;100.00;63287.88;4944499;28;19993;-73
2021/03/27 08:06:32;;;;;;;15.25;8.05;;;;;;;-140.79;100.00;63287.88;4900537;29;20486;-73
2021/03/27 08:09:35;;;;;;;13.82;8.27;;;;;;;-140.79;100.00;63287.88;4897298;29;20485;-76
2021/03/27 08:12:19;;;;;;;16.52;8.52;;;;;;;-140.79;100.00;63287.88;4911342;29;20077;-76
2021/03/27 08:14:53;;;;;;;12.18;7.32;;;;;;;-140.79;100.00;63287.88;4899704;29;20031;-74
2021/03/27 08:17:29;;;;;;;13.43;7.90;;;;;;;-140.79;100.00;63287.88;4918869;29;20036;-73
2021/03/27 08:19:56;;;;;;;14.93;7.97;;;;;;;-140.79;100.00;63287.88;4916752;29;20033;-76
2021/03/27 08:22:28;;;;;;;14.90;8.68;;;;;;;-140.79;100.00;63287.88;4924271;29;20115;-79
2021/03/27 08:25:19;;;;;;;12.63;8.40;;;;;;;-140.79;100.00;63287.88;4902999;29;20029;-74
2021/03/27 08:28:04;;;;;;;11.55;7.63;;;;;;;-140.79;100.00;63287.88;4895679;29;20036;-75
2021/03/27 08:30:37;;;;;;;14.55;7.80;;;;;;;-140.79;100.00;63287.88;4896921;29;20039;-76
2021/03/27 08:33:20;;;;;;;12.35;7.97;;;;;;;-140.79;100.00;63287.88;4893673;29;20087;-73
2021/03/27 08:36:21;;;;;;;10.32;6.97;;;;;;;-140.79;100.00;63287.88;4903212;29;20040;-76
2021/03/27 08:39:07;;;;;;;13.63;7.32;;;;;;;-140.79;100.00;63287.88;4897211;29;20032;-75
2021/03/27 08:41:54;;;;;;;12.57;7.40;;;;;;;-140.79;100.00;63287.88;4896767;29;20025;-77
2021/03/27 08:44:40;;;;;;;13.90;7.70;;;;;;;-140.79;100.00;63287.88;4904146;29;20564;-77
2021/03/27 08:47:26;;;;;;;12.40;8.43;;;;;;;-140.79;100.00;63287.88;4908080;29;20032;-77
2021/03/27 08:50:13;;;;;;;14.80;9.18;;;;;;;-140.79;100.00;63287.88;4904598;29;20036;-78
2021/03/27 08:53:15;;;;;;;13.18;8.02;;;;;;;-140.79;100.00;63287.88;4912258;29;20541;-77
2021/03/27 08:56:08;;;;;;;13.15;7.50;;;;;;;-140.79;100.00;63287.88;4909820;29;20031;-77
2021/03/27 08:58:39;;;;;;;16.00;7.55;;;;;;;-140.79;100.00;63287.88;4917675;29;20055;-76
2021/03/27 09:01:25;;;;;;;12.75;6.90;;;;;;;-140.79;100.00;63287.88;4916559;29;20036;-77
2021/03/27 09:04:15;;;;;;;13.07;7.85;;;;;;;-140.79;100.00;63287.88;4916216;29;20540;-75
2021/03/27 09:07:34;;;;;;;12.02;7.53;;;;;;;-140.79;100.00;63287.88;4943367;28;20046;-78
2021/03/27 09:10:21;;;;;;;14.95;7.10;;;;;;;-140.79;100.00;63287.88;4922878;29;20058;-76
2021/03/27 09:13:08;;;;;;;15.38;7.32;;;;;;;-140.79;100.00;63287.88;4945638;28;20126;-76
2021/03/27 09:15:52;;;;;;;13.25;7.53;;;;;;;-140.79;100.00;63287.88;4940331;28;20494;-77
2021/03/27 09:18:57;;;;;;;16.35;8.18;;;;;;;-140.79;100.00;63287.88;4940517;28;20505;-78
2021/03/27 09:21:31;;;;;;;13.18;7.97;;;;;;;-140.79;100.00;63287.88;4907506;29;20059;-77
2021/03/27 09:24:18;;;;;;;13.35;7.53;;;;;;;-140.79;100.00;63287.88;4940369;28;20054;-79
2021/03/27 09:27:21;;;;;;;12.57;7.32;;;;;;;-140.79;100.00;63287.88;4948113;28;20035;-77
2021/03/27 09:30:11;;;;;;;14.38;7.00;;;;;;;-140.79;100.00;63287.88;4939328;28;20066;-77
2021/03/27 09:32:45;;;;;;;13.27;7.30;;;;;;;-140.79;100.00;63287.88;4948314;28;20047;-77
2021/03/27 09:35:36;;;;;;;13.73;7.20;;;;;;;-140.79;100.00;63287.88;4949954;28;20091;-77
2021/03/27 09:38:20;;;;;;;11.50;6.93;;;;;;;-140.79;100.00;63287.88;4952721;28;20027;-76
2021/03/27 09:40:51;;;;;;;14.07;6.93;;;;;;;-140.79;100.00;63287.88;4941656;28;20027;-76
2021/03/27 09:43:25;;;;;;;12.90;7.22;;;;;;;-140.79;100.00;63287.88;4943669;28;20031;-77
2021/03/27 09:46:05;;;;;;;14.00;7.95;;;;;;;-140.79;100.00;63287.88;4955244;28;20098;-76
2021/03/27 09:48:46;;;;;;;11.85;6.53;;;;;;;-140.79;100.00;63287.88;4962666;28;20038;-77
2021/03/27 09:51:35;;;;;;;10.48;6.90;;;;;;;-140.79;100.00;63287.88;4968532;28;20191;-76
2021/03/27 09:54:12;;;;;;;12.77;7.13;;;;;;;-140.79;100.00;63287.88;4980898;28;20485;-76
2021/03/27 09:56:48;;;;;;;11.35;7.35;;;;;;;-140.79;100.00;63287.88;4942877;28;20090;-77
2021/03/27 09:59:17;;;;;;;12.65;7.22;;;;;;;-140.79;100.00;63287.88;4965601;28;20039;-76
2021/03/27 10:01:45;;;;;;;12.77;6.70;;;;;;;-140.79;100.00;63287.88;4958387;28;20113;-76
2021/03/27 10:04:29;;;;;;;17.13;14.00;;;;;;;-140.79;100.00;63287.88;4966832;28;20114;-78
2021/03/27 10:07:07;;;;;;;224.70;131.23;;;;;;;-140.79;100.00;63287.88;4947765;28;20023;-76
2021/03/27 10:09:32;;;;;;;12.27;7.28;;;;;;;-140.79;100.00;63287.88;4935083;29;20086;-77
2021/03/27 10:12:05;;;;;;;12.27;7.40;;;;;;;-140.79;100.00;63287.88;4933846;29;20479;-76
2021/03/27 10:14:47;;;;;;;13.93;7.03;;;;;;;-140.79;100.00;63287.88;4949318;29;20031;-77
2021/03/27 10:17:32;;;;;;;10.10;6.63;;;;;;;-140.79;100.00;63287.88;4964955;28;20059;-76
2021/03/27 10:20:07;;;;;;;12.20;7.22;;;;;;;-140.79;100.00;63287.88;4948640;29;20039;-77
2021/03/27 10:22:38;;;;;;;10.65;6.25;;;;;;;-140.79;100.00;63287.88;4934692;28;20565;-76
2021/03/27 10:25:08;;;;;;;11.30;6.53;;;;;;;-140.79;100.00;63287.88;4934631;29;20028;-78
2021/03/27 10:27:42;;;;;;;;;;;;;;;-140.79;100.00;63287.88;4934118;29;20796;-78
2021/03/27 10:30:26;;;;;;;10.45;6.60;;;;;;;-140.79;100.00;63287.88;4948817;29;20028;-78
2021/03/27 10:33:00;;;;;;;10.98;6.43;;;;;;;-140.79;100.00;63287.88;4949106;29;20647;-77
2021/03/27 10:35:49;;;;;;;13.00;7.03;;;;;;;-140.79;100.00;63287.88;4933721;29;20520;-78
2021/03/27 10:38:39;;;;;;;11.63;6.80;;;;;;;-140.79;100.00;63287.88;4933869;29;20094;-77
2021/03/27 10:41:11;;;;;;;10.43;6.35;;;;;;;-140.79;100.00;63287.88;4933480;29;20020;-77
2021/03/27 10:44:03;;;;;;;11.13;6.43;;;;;;;-140.79;100.00;63287.88;4948951;29;20035;-78
2021/03/27 10:46:44;;;;;;;11.05;7.20;;;;;;;-140.79;100.00;63287.88;4932123;28;20464;-78
2021/03/27 10:49:24;;;;;;;10.48;6.97;;;;;;;-140.79;100.00;63287.88;4986676;28;20034;-76
2021/03/27 10:52:14;;;;;;;10.93;6.85;;;;;;;-140.79;100.00;63287.88;4986675;28;20038;-77
2021/03/27 10:54:49;;;;;;;10.73;6.55;;;;;;;-140.79;100.00;63287.88;4986777;28;20030;-77
2021/03/27 10:57:54;;;;;;;10.25;6.75;;;;;;;-140.79;100.00;63287.88;4986422;28;20035;-76
2021/03/27 11:00:28;;;;;;;126.97;79.65;;;;;;;-140.79;100.00;63287.88;4960457;28;20031;-76
2021/03/27 11:02:56;;;;;;;79.10;55.53;;;;;;;-140.79;100.00;63287.88;4971476;28;20034;-77
2021/03/27 11:05:29;;;;;;;93.60;68.45;;;;;;;-140.79;100.00;63287.88;4971323;28;20051;-77
2021/03/27 11:08:33;;;;;;;66.63;59.17;;;;;;;-140.79;100.00;63287.88;4986267;28;20031;-77
2021/03/27 11:11:00;;;;;;;411.13;254.38;;;;;;;-140.79;100.00;63287.88;4953612;28;20035;-77
2021/03/27 11:13:53;;;;;;;90.70;74.72;;;;;;;-140.79;100.00;63287.88;4986419;28;20493;-77
2021/03/27 11:16:52;;;;;;;16.90;15.27;;;;;;;-140.79;100.00;63287.88;4985652;28;20439;-78
2021/03/27 11:19:42;;;;;;;329.75;203.15;;;;;;;-140.79;100.00;63287.88;4963868;28;20035;-77
2021/03/27 11:22:11;;;;;;;11.75;6.85;;;;;;;-140.79;100.00;63287.88;4951864;28;20031;-77
2021/03/27 11:24:46;;;;;;;86.90;70.93;;;;;;;-140.79;100.00;63287.88;4967190;28;20129;-76
2021/03/27 11:27:17;;;;;;;26.95;24.48;;;;;;;-140.79;100.00;63287.88;4951776;28;20042;-78
2021/03/27 11:30:23;;;;;;;20.08;18.10;;;;;;;-140.79;100.00;63287.88;4967094;28;20035;-78
2021/03/27 11:32:53;;;;;;;10.13;6.45;;;;;;;-140.79;100.00;63287.88;4943877;28;20043;-77
2021/03/27 11:35:27;;;;;;;10.73;6.95;;;;;;;-140.79;100.00;63287.88;4966873;28;20019;-77
2021/03/27 11:38:26;;;;;;;15.85;12.70;;;;;;;-140.79;100.00;63287.88;4950486;28;20034;-77
2021/03/27 11:40:55;;;;;;;13.70;12.20;;;;;;;-140.79;100.00;63287.88;4951749;29;20091;-77
2021/03/27 11:43:57;;;;;;;16.80;14.43;;;;;;;-140.79;100.00;63287.88;4952247;28;20027;-81
2021/03/27 11:46:39;;;;;;;17.58;15.23;;;;;;;-140.79;100.00;63287.88;4953344;28;20465;-76
2021/03/27 11:49:06;;;;;;;70.43;47.17;;;;;;;-140.79;100.00;63287.88;4966991;28;20043;-77
2021/03/27 11:51:37;;;;;;;18.27;10.65;;;;;;;-140.79;100.00;63287.88;4966973;28;20078;-78
2021/03/27 11:54:10;;;;;;;12.75;7.47;;;;;;;-140.79;100.00;63287.88;4966832;28;20523;-80
2021/03/27 11:57:00;;;;;;;7.82;4.90;;;;;;;-140.79;100.00;63287.88;4965495;28;20038;-83
2021/03/27 12:02:21;;;;;;;55.47;43.38;;;;;;;-140.79;100.00;63287.88;4953162;29;20098;-83
2021/03/27 12:05:21;;;;;;;41.63;26.67;;;;;;;-140.79;100.00;63287.88;4951827;29;20059;-83
2021/03/27 12:08:12;;;;;;;21.17;19.02;;;;;;;-140.79;100.00;63287.88;4952360;28;20035;-82
2021/03/27 12:10:44;;;;;;;70.25;52.67;;;;;;;-140.79;100.00;63287.88;4951244;28;20122;-81
2021/03/27 12:13:10;;;;;;;15.18;13.68;;;;;;;-140.79;100.00;63287.88;4951009;29;20085;-83